Time;durP1;ratioP1;P1;durP2;ratioP2;P2;SDS_P1;SDS_P2;PMS_P1;PMS_P2;Temp;Humidity;BMP_temperature;BMP_pressure;BME280_temperature;BME280_humidity;BME280_pressure;Samples;Min_cycle;Max_cycle;Signal;HPM_P1;HPM_P2
2022/11/18 00:01:33;;;;;;;2.43;1.80;;;9.80;99.90;;;;;;5114921;27;20519;-36
2022/11/18 00:03:59;;;;;;;2.67;2.10;;;9.80;99.90;;;;;;5100761;27;20461;-36
2022/11/18 00:06:26;;;;;;;3.93;2.20;;;9.90;99.90;;;;;;5098343;28;20433;-35
2022/11/18 00:08:53;;;;;;;3.33;1.77;;;9.90;99.90;;;;;;5110261;28;20179;-35
2022/11/18 00:14:19;;;;;;;5.07;2.37;;;10.00;99.90;;;;;;5089880;28;20919;-35
2022/11/18 00:16:46;;;;;;;2.83;2.13;;;10.00;99.90;;;;;;5089874;28;20418;-35
2022/11/18 00:19:12;;;;;;;4.13;1.80;;;10.10;99.90;;;;;;5089722;28;20431;-35
2022/11/18 00:21:37;;;;;;;3.20;2.20;;;10.00;99.90;;;;;;5089761;28;20513;-36
2022/11/18 00:24:03;;;;;;;3.37;2.10;;;10.00;99.90;;;;;;5103973;28;20555;-35
2022/11/18 00:26:29;;;;;;;4.40;1.70;;;9.90;99.90;;;;;;5089670;28;20237;-35
2022/11/18 00:28:54;;;;;;;3.80;2.43;;;10.00;99.90;;;;;;5089983;28;20181;-35
2022/11/18 00:31:20;;;;;;;3.30;2.07;;;10.00;99.90;;;;;;5089716;28;20806;-35
2022/11/18 00:33:46;;;;;;;4.90;1.97;;;10.10;99.90;;;;;;5088720;28;20213;-36
2022/11/18 00:36:12;;;;;;;3.63;2.47;;;10.00;99.90;;;;;;5089914;28;20223;-35
2022/11/18 00:38:38;;;;;;;4.23;2.07;;;10.10;99.90;;;;;;5089132;28;20598;-35
2022/11/18 00:41:14;;;;;;;3.70;2.40;;;10.20;99.90;;;;;;5088591;28;20200;-36
2022/11/18 00:43:41;;;;;;;3.87;1.90;;;10.20;99.90;;;;;;5089304;28;20472;-36
2022/11/18 00:46:09;;;;;;;3.10;2.23;;;10.30;99.90;;;;;;5089871;28;20432;-36
2022/11/18 00:48:35;;;;;;;3.10;1.90;;;10.20;99.90;;;;;;5089256;28;20510;-35
2022/11/18 00:51:14;;;;;;;3.30;2.17;;;10.20;99.90;;;;;;5089892;28;20501;-35
2022/11/18 00:53:40;;;;;;;4.53;2.47;;;10.20;99.90;;;;;;5093185;28;20428;-35
2022/11/18 00:56:07;;;;;;;5.93;2.40;;;10.20;99.90;;;;;;5093794;28;20767;-36
2022/11/18 00:58:33;;;;;;;5.47;1.83;;;10.20;99.90;;;;;;5093263;28;20463;-35
2022/11/18 01:00:59;;;;;;;5.30;2.20;;;10.20;99.90;;;;;;5093740;28;20807;-35
2022/11/18 01:03:26;;;;;;;3.70;2.13;;;10.20;99.90;;;;;;5093209;28;20446;-36
2022/11/18 01:05:53;;;;;;;4.47;2.27;;;10.10;99.90;;;;;;5098041;28;20557;-36
2022/11/18 01:08:18;;;;;;;3.73;2.33;;;10.10;99.90;;;;;;5114143;28;20420;-35
2022/11/18 01:10:45;;;;;;;3.03;1.90;;;10.10;99.90;;;;;;5113411;28;20919;-35
2022/11/18 01:13:19;;;;;;;4.03;2.03;;;10.10;99.90;;;;;;5113723;28;20418;-35
2022/11/18 01:15:56;;;;;;;2.30;2.10;;;10.20;99.90;;;;;;5113718;28;20413;-36
2022/11/18 01:18:27;;;;;;;2.70;1.90;;;10.10;99.90;;;;;;5113304;28;20831;-36
2022/11/18 01:20:53;;;;;;;3.00;1.67;;;10.00;99.90;;;;;;5113559;28;20417;-36
2022/11/18 01:23:19;;;;;;;3.80;2.13;;;10.00;99.90;;;;;;5113368;28;20522;-35
2022/11/18 01:25:47;;;;;;;4.90;2.17;;;10.00;99.90;;;;;;5113295;28;20496;-35
2022/11/18 01:28:13;;;;;;;2.73;2.00;;;10.10;99.90;;;;;;5113647;28;20413;-35
2022/11/18 01:30:40;;;;;;;4.53;2.10;;;10.10;99.90;;;;;;5112860;28;20410;-35
2022/11/18 01:33:07;;;;;;;5.03;2.30;;;10.10;99.90;;;;;;5112267;28;20188;-35
2022/11/18 01:35:38;;;;;;;3.80;2.10;;;10.20;99.90;;;;;;5113463;28;20776;-35
2022/11/18 01:38:05;;;;;;;4.00;2.13;;;10.20;99.90;;;;;;5113391;28;21141;-35
2022/11/18 01:40:31;;;;;;;4.47;2.10;;;10.20;99.90;;;;;;5112952;28;20414;-36
2022/11/18 01:42:57;;;;;;;7.40;2.10;;;10.30;99.90;;;;;;5112705;28;20517;-36
2022/11/18 01:45:36;;;;;;;5.10;2.37;;;10.30;99.90;;;;;;5113159;28;20773;-35
2022/11/18 01:48:20;;;;;;;4.40;1.97;;;10.20;99.90;;;;;;5113135;28;20440;-36
2022/11/18 01:50:51;;;;;;;5.67;2.43;;;10.20;99.90;;;;;;5111500;28;20440;-35
2022/11/18 01:53:24;;;;;;;2.70;2.10;;;10.30;99.90;;;;;;5112755;28;20413;-36
2022/11/18 01:55:53;;;;;;;2.33;1.80;;;10.30;99.90;;;;;;5112556;28;20934;-37
2022/11/18 01:58:29;;;;;;;3.53;1.87;;;10.20;99.90;;;;;;5112945;27;20416;-35
2022/11/18 02:00:55;;;;;;;6.57;2.93;;;10.10;99.90;;;;;;5113037;28;21002;-36
2022/11/18 02:03:22;;;;;;;4.07;2.00;;;10.20;99.90;;;;;;5111769;28;20951;-35
2022/11/18 02:05:49;;;;;;;2.10;1.63;;;10.20;99.90;;;;;;5112772;28;20434;-36
2022/11/18 02:08:17;;;;;;;2.30;1.67;;;10.20;99.90;;;;;;5112625;28;20417;-36
2022/11/18 02:10:43;;;;;;;4.90;2.00;;;10.20;99.90;;;;;;5112717;28;20738;-35
2022/11/18 02:13:09;;;;;;;2.90;1.57;;;10.10;99.90;;;;;;5112433;28;20428;-35
2022/11/18 02:16:06;;;;;;;2.03;1.40;;;10.20;99.90;;;;;;5112682;28;20642;-35
2022/11/18 02:18:53;;;;;;;2.20;1.43;;;10.10;99.90;;;;;;5107844;28;20418;-36
2022/11/18 02:21:45;;;;;;;4.47;2.10;;;10.10;99.90;;;;;;5111301;28;20421;-35
2022/11/18 02:24:53;;;;;;;3.43;1.70;;;10.00;99.90;;;;;;5091782;28;20454;-35
2022/11/18 02:27:44;;;;;;;2.40;1.40;;;10.00;99.90;;;;;;5092046;28;20445;-36
2022/11/18 02:30:12;;;;;;;3.97;1.50;;;10.00;99.90;;;;;;5091650;28;20398;-36
2022/11/18 02:32:45;;;;;;;2.60;1.37;;;9.90;99.90;;;;;;5090889;28;20450;-35
2022/11/18 02:35:22;;;;;;;2.67;1.80;;;10.00;99.90;;;;;;5091676;28;20766;-35
2022/11/18 02:38:00;;;;;;;3.90;1.40;;;10.00;99.90;;;;;;5091796;28;20903;-35
2022/11/18 02:40:45;;;;;;;2.17;1.70;;;10.10;99.90;;;;;;5091494;28;20410;-35
2022/11/18 02:43:26;;;;;;;3.13;1.70;;;10.00;99.90;;;;;;5091462;28;20533;-35
2022/11/18 02:45:58;;;;;;;3.30;1.70;;;10.00;99.90;;;;;;5091340;28;20406;-36
2022/11/18 02:48:27;;;;;;;3.43;1.73;;;10.00;99.90;;;;;;5091313;28;20494;-35
2022/11/18 02:50:54;;;;;;;3.10;1.67;;;10.00;99.90;;;;;;5091450;28;20869;-35
2022/11/18 02:53:22;;;;;;;2.43;1.80;;;10.00;99.90;;;;;;5091296;28;20423;-35
2022/11/18 02:55:49;;;;;;;2.70;1.60;;;9.90;99.90;;;;;;5091398;28;20812;-35
2022/11/18 02:58:18;;;;;;;3.93;1.93;;;9.80;99.90;;;;;;5089840;28;20920;-36
2022/11/18 03:00:51;;;;;;;6.73;1.93;;;9.70;99.90;;;;;;5091246;28;20782;-36
2022/11/18 03:03:27;;;;;;;3.40;1.73;;;9.70;99.90;;;;;;5090985;28;20464;-36
2022/11/18 03:06:12;;;;;;;2.90;1.77;;;9.60;99.90;;;;;;5096020;28;20432;-35
2022/11/18 03:08:44;;;;;;;2.50;1.50;;;9.70;99.90;;;;;;5110874;28;20412;-37
2022/11/18 03:11:18;;;;;;;2.90;1.50;;;9.60;99.90;;;;;;5111620;28;20405;-35
2022/11/18 03:14:03;;;;;;;2.30;1.80;;;9.70;99.90;;;;;;5111152;28;20418;-37
2022/11/18 03:16:40;;;;;;;3.27;2.40;;;9.60;99.90;;;;;;5111488;28;20406;-35
2022/11/18 03:19:31;;;;;;;4.13;1.60;;;9.70;99.90;;;;;;5110213;28;20406;-35
2022/11/18 03:22:10;;;;;;;4.60;1.63;;;9.70;99.90;;;;;;5109987;28;20534;-35
2022/11/18 03:24:39;;;;;;;4.37;2.43;;;9.80;99.90;;;;;;5110189;28;20429;-35
2022/11/18 03:27:20;;;;;;;2.70;1.60;;;9.80;99.90;;;;;;5110722;28;20440;-36
2022/11/18 03:29:53;;;;;;;5.33;1.60;;;9.70;99.90;;;;;;5110695;28;20482;-36
2022/11/18 03:32:28;;;;;;;4.13;1.90;;;9.70;99.90;;;;;;5111276;28;20421;-35
2022/11/18 03:35:06;;;;;;;2.07;1.60;;;9.40;99.90;;;;;;5110112;28;20413;-36
2022/11/18 03:37:34;;;;;;;3.67;2.30;;;9.80;99.90;;;;;;5111105;28;20569;-35
2022/11/18 03:40:24;;;;;;;2.80;1.87;;;9.80;99.90;;;;;;5091962;28;20418;-35
2022/11/18 03:42:56;;;;;;;5.27;2.00;;;9.80;99.90;;;;;;5110273;28;20809;-35
2022/11/18 03:45:38;;;;;;;6.20;2.20;;;10.00;99.90;;;;;;5110872;28;20499;-35
2022/11/18 03:48:09;;;;;;;2.73;1.90;;;10.00;99.90;;;;;;5110776;28;20510;-36
2022/11/18 03:50:43;;;;;;;3.60;2.07;;;10.00;99.90;;;;;;5110383;28;20413;-35
2022/11/18 03:53:10;;;;;;;3.47;1.87;;;10.00;99.90;;;;;;5109292;28;20461;-35
2022/11/18 03:55:40;;;;;;;3.57;2.07;;;10.00;99.90;;;;;;5110763;28;20418;-36
2022/11/18 03:58:17;;;;;;;4.10;2.17;;;10.10;99.90;;;;;;5110825;28;20475;-35
2022/11/18 04:00:47;;;;;;;2.50;2.30;;;10.00;99.90;;;;;;5110140;28;20424;-35
2022/11/18 04:03:13;;;;;;;2.30;1.90;;;10.00;99.90;;;;;;5110362;28;20556;-35
2022/11/18 04:05:41;;;;;;;3.17;2.03;;;10.00;99.90;;;;;;5110598;28;20571;-35
2022/11/18 04:08:12;;;;;;;3.37;2.53;;;9.90;99.90;;;;;;5110522;28;20490;-35
2022/11/18 04:10:49;;;;;;;3.83;1.83;;;10.00;99.90;;;;;;5110363;28;20421;-35
2022/11/18 04:13:25;;;;;;;3.43;2.30;;;10.00;99.90;;;;;;5109925;28;20416;-35
2022/11/18 04:15:53;;;;;;;3.20;2.30;;;10.00;99.90;;;;;;5110775;28;20440;-35
2022/11/18 04:18:19;;;;;;;3.40;2.20;;;10.00;99.90;;;;;;5110474;28;20409;-35
2022/11/18 04:20:44;;;;;;;2.40;1.83;;;10.00;99.90;;;;;;5110016;28;20939;-35
2022/11/18 04:23:10;;;;;;;4.00;2.23;;;10.10;99.90;;;;;;5121743;28;20527;-35
2022/11/18 04:25:36;;;;;;;4.67;2.47;;;10.10;99.90;;;;;;5129348;27;20183;-35
2022/11/18 04:28:02;;;;;;;2.80;1.70;;;10.10;99.90;;;;;;5130283;27;20191;-36
2022/11/18 04:30:28;;;;;;;5.00;1.93;;;10.00;99.90;;;;;;5130399;27;20416;-36
2022/11/18 04:32:54;;;;;;;3.87;2.13;;;10.00;99.90;;;;;;5129342;27;20449;-35
2022/11/18 04:35:19;;;;;;;3.63;2.03;;;10.00;99.90;;;;;;5130759;27;20440;-35
2022/11/18 04:37:45;;;;;;;2.10;1.90;;;9.90;99.90;;;;;;5130557;27;20183;-35
2022/11/18 04:40:11;;;;;;;9.50;2.30;;;10.00;99.90;;;;;;5130097;27;20190;-36
2022/11/18 04:42:37;;;;;;;4.43;2.60;;;9.90;99.90;;;;;;5130418;27;20668;-35
2022/11/18 04:45:03;;;;;;;3.70;2.00;;;9.90;99.90;;;;;;5130536;27;20621;-36
2022/11/18 04:47:29;;;;;;;3.13;2.40;;;9.90;99.90;;;;;;5130576;27;20199;-35
2022/11/18 04:49:55;;;;;;;4.33;2.30;;;9.80;99.90;;;;;;5130164;27;20779;-35
2022/11/18 04:52:20;;;;;;;4.43;2.33;;;9.80;99.90;;;;;;5130396;27;20929;-35
2022/11/18 04:54:46;;;;;;;3.10;2.17;;;9.80;99.90;;;;;;5130294;27;20840;-36
2022/11/18 04:57:12;;;;;;;5.73;2.43;;;9.80;99.90;;;;;;5130083;27;20175;-35
2022/11/18 04:59:38;;;;;;;3.73;2.20;;;9.80;99.90;;;;;;5129890;27;20217;-36
2022/11/18 05:02:04;;;;;;;3.10;2.03;;;9.90;99.90;;;;;;5130424;27;20202;-35
2022/11/18 05:04:32;;;;;;;3.03;2.30;;;9.80;99.90;;;;;;5130228;27;20198;-35
2022/11/18 05:07:00;;;;;;;3.37;2.50;;;9.80;99.90;;;;;;5116015;27;20574;-35
2022/11/18 05:09:26;;;;;;;4.50;2.40;;;9.90;99.90;;;;;;5108313;28;20434;-35
2022/11/18 05:14:37;;;;;;;3.47;2.00;;;9.80;99.90;;;;;;5109755;28;20613;-35
2022/11/18 05:17:04;;;;;;;2.30;2.00;;;9.80;99.90;;;;;;5109833;28;20421;-35
2022/11/18 05:19:30;;;;;;;4.07;2.40;;;9.80;99.90;;;;;;5109560;28;20498;-35
2022/11/18 05:21:55;;;;;;;2.80;2.47;;;9.90;99.90;;;;;;5092818;28;20459;-35
2022/11/18 05:24:23;;;;;;;3.37;1.77;;;9.90;99.90;;;;;;5130117;27;20219;-35
2022/11/18 05:26:52;;;;;;;4.77;2.17;;;10.00;99.90;;;;;;5130082;27;20220;-35
2022/11/18 05:29:19;;;;;;;3.20;2.10;;;10.00;99.90;;;;;;5129751;27;20424;-35
2022/11/18 05:31:46;;;;;;;2.33;2.10;;;9.90;99.90;;;;;;5130187;27;20420;-36
2022/11/18 05:34:12;;;;;;;4.00;2.00;;;9.80;99.90;;;;;;5129046;27;20427;-35
2022/11/18 05:36:37;;;;;;;3.90;2.10;;;9.70;99.90;;;;;;5129901;27;20429;-36
2022/11/18 05:39:03;;;;;;;6.30;2.07;;;9.70;99.90;;;;;;5131646;27;20513;-35
2022/11/18 05:44:14;;;;;;;3.30;2.30;;;9.70;99.90;;;;;;5118640;27;20211;-35
2022/11/18 05:46:39;;;;;;;3.00;2.37;;;9.70;99.90;;;;;;5123395;27;20414;-35
2022/11/18 05:49:06;;;;;;;3.37;2.30;;;9.70;99.90;;;;;;5132911;27;20752;-35
2022/11/18 05:51:32;;;;;;;4.83;2.00;;;9.70;99.90;;;;;;5133525;27;20749;-35
2022/11/18 05:53:58;;;;;;;3.30;1.90;;;9.80;99.90;;;;;;5133225;27;20405;-35
2022/11/18 05:56:39;;;;;;;5.20;1.97;;;9.80;99.90;;;;;;5133563;27;20420;-36
2022/11/18 05:59:05;;;;;;;4.00;2.37;;;9.90;99.90;;;;;;5133008;27;20424;-35
2022/11/18 06:01:40;;;;;;;2.73;2.10;;;10.00;99.90;;;;;;5101620;27;20443;-35
2022/11/18 06:04:14;;;;;;;3.47;1.90;;;10.10;99.90;;;;;;5110339;27;20470;-35
2022/11/18 06:06:40;;;;;;;5.87;2.10;;;10.10;99.90;;;;;;5123546;27;20432;-35
2022/11/18 06:09:08;;;;;;;4.13;2.60;;;10.10;99.90;;;;;;5122082;27;20429;-35
2022/11/18 06:11:43;;;;;;;4.30;2.43;;;10.10;99.90;;;;;;5119485;27;20432;-36
2022/11/18 06:14:21;;;;;;;5.00;2.90;;;10.10;99.90;;;;;;5124068;27;20443;-36
2022/11/18 06:16:50;;;;;;;6.03;3.10;;;10.10;99.90;;;;;;5124722;27;20761;-35
2022/11/18 06:19:17;;;;;;;5.60;2.80;;;10.10;99.90;;;;;;5132776;27;20493;-36
2022/11/18 06:21:43;;;;;;;4.20;2.47;;;10.00;99.90;;;;;;5133008;27;20415;-36
2022/11/18 06:24:10;;;;;;;4.10;2.50;;;10.00;99.90;;;;;;5132727;27;20509;-36
2022/11/18 06:26:37;;;;;;;3.93;2.40;;;9.90;99.90;;;;;;5132700;27;20421;-36
2022/11/18 06:29:03;;;;;;;5.80;3.03;;;10.00;99.90;;;;;;5116437;27;20509;-35
2022/11/18 06:31:29;;;;;;;4.20;2.67;;;10.00;99.90;;;;;;5112311;28;20416;-35
2022/11/18 06:33:55;;;;;;;4.53;2.33;;;10.00;99.90;;;;;;5111211;28;20429;-35
2022/11/18 06:36:20;;;;;;;3.60;2.27;;;10.10;99.90;;;;;;5112106;28;20240;-36
2022/11/18 06:38:46;;;;;;;2.90;2.63;;;10.10;99.90;;;;;;5111948;28;20625;-36
2022/11/18 06:41:11;;;;;;;3.60;2.70;;;10.00;99.90;;;;;;5111946;28;20522;-36
2022/11/18 06:43:37;;;;;;;4.67;2.70;;;10.00;99.90;;;;;;5111806;27;20246;-35
2022/11/18 06:48:49;;;;;;;4.73;2.93;;;10.00;99.90;;;;;;5131828;27;20519;-35
2022/11/18 06:51:15;;;;;;;5.60;2.90;;;9.90;99.90;;;;;;5132609;27;20891;-35
2022/11/18 06:53:41;;;;;;;3.73;2.63;;;9.90;99.90;;;;;;5132094;27;20429;-35
2022/11/18 06:56:09;;;;;;;4.50;3.07;;;9.80;99.90;;;;;;5132143;27;20265;-36
2022/11/18 06:58:35;;;;;;;3.67;2.67;;;9.80;99.90;;;;;;5132017;27;20243;-35
2022/11/18 07:01:11;;;;;;;2.90;2.50;;;9.70;99.90;;;;;;5118886;27;20827;-36
2022/11/18 07:03:38;;;;;;;7.93;4.00;;;9.70;99.90;;;;;;5099964;28;20765;-36
2022/11/18 07:06:04;;;;;;;9.27;4.07;;;9.60;99.90;;;;;;5102332;28;20457;-35
2022/11/18 07:08:30;;;;;;;5.50;3.10;;;9.60;99.90;;;;;;5111725;27;20943;-35
2022/11/18 07:10:55;;;;;;;4.53;3.50;;;9.60;99.90;;;;;;5105873;27;20418;-36
2022/11/18 07:13:21;;;;;;;5.20;3.30;;;9.60;99.90;;;;;;5111294;28;20194;-36
2022/11/18 07:15:46;;;;;;;6.60;3.80;;;9.60;99.90;;;;;;5111446;28;20194;-35
2022/11/18 07:18:12;;;;;;;4.10;3.17;;;9.60;99.90;;;;;;5110409;28;20801;-35
2022/11/18 07:20:38;;;;;;;7.10;3.67;;;9.70;99.90;;;;;;5103767;27;20270;-35
2022/11/18 07:23:03;;;;;;;9.27;3.10;;;9.70;99.90;;;;;;5122537;27;20226;-36
2022/11/18 07:25:29;;;;;;;4.10;2.77;;;9.70;99.90;;;;;;5114513;27;20184;-35
2022/11/18 07:27:55;;;;;;;3.57;2.57;;;9.80;99.90;;;;;;5117404;27;20633;-36
2022/11/18 07:30:20;;;;;;;3.43;2.90;;;9.80;99.90;;;;;;5126491;27;20436;-36
2022/11/18 07:32:46;;;;;;;4.30;3.13;;;9.90;99.90;;;;;;5119768;27;20192;-35
2022/11/18 07:35:12;;;;;;;4.63;2.97;;;9.90;99.90;;;;;;5111055;28;20218;-36
2022/11/18 07:37:37;;;;;;;4.50;3.13;;;9.90;99.90;;;;;;5110974;28;20188;-35
2022/11/18 07:40:03;;;;;;;4.90;3.00;;;9.90;99.90;;;;;;5110822;28;20600;-35
2022/11/18 07:42:41;;;;;;;3.00;2.70;;;9.90;99.90;;;;;;5110183;28;20195;-35
2022/11/18 07:45:11;;;;;;;6.77;3.10;;;9.90;99.90;;;;;;5101251;28;20425;-35
2022/11/18 07:47:37;;;;;;;7.53;3.80;;;9.90;99.90;;;;;;5099524;28;20478;-35
2022/11/18 07:50:04;;;;;;;11.37;5.63;;;10.00;99.90;;;;;;5097982;28;20869;-35
2022/11/18 07:52:29;;;;;;;4.20;3.13;;;9.90;99.90;;;;;;5095872;28;20516;-35
2022/11/18 07:54:55;;;;;;;5.70;3.43;;;10.00;99.90;;;;;;5109589;28;20544;-35
2022/11/18 07:57:21;;;;;;;6.07;3.60;;;10.00;99.90;;;;;;5110736;28;20195;-36
2022/11/18 07:59:47;;;;;;;4.17;3.77;;;10.00;99.90;;;;;;5110608;28;20677;-36
2022/11/18 08:02:12;;;;;;;4.37;3.60;;;10.00;99.90;;;;;;5109973;28;20225;-36
2022/11/18 08:04:38;;;;;;;4.60;3.33;;;10.00;99.90;;;;;;5110175;28;20544;-36
2022/11/18 08:07:04;;;;;;;9.37;4.47;;;10.00;99.90;;;;;;5110512;28;20211;-35
2022/11/18 08:09:29;;;;;;;11.50;4.37;;;10.10;99.90;;;;;;5110008;28;20183;-37
2022/11/18 08:11:55;;;;;;;7.33;4.00;;;10.10;99.90;;;;;;5107587;28;20838;-35
2022/11/18 08:14:23;;;;;;;5.33;3.87;;;10.10;99.90;;;;;;5107707;28;20192;-35
2022/11/18 08:16:49;;;;;;;5.57;3.70;;;10.10;99.90;;;;;;5102640;28;20384;-35
2022/11/18 08:19:15;;;;;;;3.93;3.30;;;10.10;99.90;;;;;;5109956;28;20514;-36
2022/11/18 08:21:40;;;;;;;7.47;3.77;;;10.20;99.90;;;;;;5110521;28;20191;-35
2022/11/18 08:24:08;;;;;;;6.67;3.73;;;10.20;99.90;;;;;;5129761;28;20846;-35
2022/11/18 08:26:34;;;;;;;6.93;3.90;;;10.30;99.90;;;;;;5130932;27;20559;-35
2022/11/18 08:29:00;;;;;;;8.50;3.77;;;10.30;99.90;;;;;;5130443;27;20408;-36
2022/11/18 08:31:29;;;;;;;5.70;4.53;;;10.30;99.90;;;;;;5130834;27;20917;-35
2022/11/18 08:34:01;;;;;;;4.00;3.60;;;10.40;99.90;;;;;;5129627;27;20175;-35
2022/11/18 08:36:32;;;;;;;6.20;3.70;;;10.40;99.90;;;;;;5130745;27;20428;-35
2022/11/18 08:38:59;;;;;;;6.27;3.73;;;10.50;99.90;;;;;;5130553;27;20424;-35
2022/11/18 08:41:31;;;;;;;4.97;3.17;;;10.40;99.90;;;;;;5130589;27;20423;-35
2022/11/18 08:43:57;;;;;;;5.60;3.90;;;10.50;99.90;;;;;;5130408;27;20456;-35
2022/11/18 08:46:23;;;;;;;6.77;3.60;;;10.50;99.90;;;;;;5130535;27;20424;-35
2022/11/18 08:48:48;;;;;;;6.00;3.67;;;10.50;99.90;;;;;;5130472;27;20499;-36
2022/11/18 08:51:14;;;;;;;5.10;3.77;;;10.60;99.90;;;;;;5111109;27;20267;-35
2022/11/18 08:53:40;;;;;;;6.20;4.03;;;10.60;99.90;;;;;;5089024;28;20615;-35
2022/11/18 08:56:11;;;;;;;4.30;3.40;;;10.60;99.90;;;;;;5089008;28;20457;-36
2022/11/18 08:58:37;;;;;;;4.43;3.40;;;10.60;99.90;;;;;;5088369;28;20510;-35
2022/11/18 09:01:06;;;;;;;3.97;3.53;;;10.60;99.90;;;;;;5089653;28;20549;-35
2022/11/18 09:03:32;;;;;;;6.10;3.70;;;10.60;99.90;;;;;;5089350;28;20277;-35
2022/11/18 09:06:09;;;;;;;6.80;4.20;;;10.70;99.90;;;;;;5095112;28;20429;-35
2022/11/18 09:08:35;;;;;;;4.40;3.40;;;10.70;99.90;;;;;;5109493;28;20187;-35
2022/11/18 09:11:08;;;;;;;6.03;4.00;;;10.70;99.90;;;;;;5110089;28;20422;-35
2022/11/18 09:13:34;;;;;;;5.73;3.70;;;10.80;99.90;;;;;;5110987;28;20194;-35
2022/11/18 09:16:01;;;;;;;5.80;3.77;;;10.90;99.90;;;;;;5114002;27;20440;-35
2022/11/18 09:18:27;;;;;;;5.00;3.70;;;10.90;99.90;;;;;;5113152;27;20421;-36
2022/11/18 09:20:55;;;;;;;6.03;3.40;;;10.90;99.90;;;;;;5113864;28;20418;-36
2022/11/18 09:23:21;;;;;;;4.23;3.83;;;10.90;99.90;;;;;;5113114;28;20464;-35
2022/11/18 09:25:46;;;;;;;5.00;4.30;;;10.90;99.90;;;;;;5113443;28;20441;-35
2022/11/18 09:28:12;;;;;;;5.57;3.97;;;10.90;99.90;;;;;;5113441;28;20476;-35
2022/11/18 09:30:38;;;;;;;5.13;4.03;;;10.90;99.90;;;;;;5113343;28;20274;-36
2022/11/18 09:33:05;;;;;;;4.20;3.80;;;10.90;99.90;;;;;;5112272;28;20176;-35
2022/11/18 09:35:32;;;;;;;7.90;3.60;;;10.90;99.90;;;;;;5113516;28;20191;-36
2022/11/18 09:37:58;;;;;;;7.97;4.27;;;10.90;99.90;;;;;;5113439;28;20903;-35
2022/11/18 09:40:24;;;;;;;8.10;4.37;;;10.90;99.90;;;;;;5112710;28;20424;-36
2022/11/18 09:42:56;;;;;;;5.00;3.83;;;10.90;99.90;;;;;;5111783;28;20199;-35
2022/11/18 09:45:23;;;;;;;8.20;4.37;;;10.90;99.90;;;;;;5113276;28;20418;-35
2022/11/18 09:47:49;;;;;;;5.47;4.60;;;10.90;99.90;;;;;;5113238;28;20410;-35
2022/11/18 09:50:20;;;;;;;6.30;4.13;;;10.90;99.90;;;;;;5112849;28;20431;-35
2022/11/18 09:53:01;;;;;;;4.50;4.10;;;10.90;99.90;;;;;;5112750;28;20422;-36
2022/11/18 09:55:28;;;;;;;5.07;4.10;;;11.00;99.90;;;;;;5118968;27;20447;-35
2022/11/18 09:57:57;;;;;;;8.80;4.33;;;10.90;99.90;;;;;;5120858;27;20485;-36
2022/11/18 10:00:25;;;;;;;9.57;4.73;;;11.00;99.90;;;;;;5120308;27;20448;-35
2022/11/18 10:02:56;;;;;;;4.67;4.00;;;11.00;99.90;;;;;;5132805;27;20460;-36
2022/11/18 10:05:43;;;;;;;6.40;4.33;;;11.00;99.90;;;;;;5131864;27;20516;-35
2022/11/18 10:08:25;;;;;;;5.73;4.63;;;11.10;99.90;;;;;;5110896;28;20425;-35
2022/11/18 10:10:55;;;;;;;6.03;4.30;;;11.10;99.90;;;;;;5112840;27;20470;-35
2022/11/18 10:13:56;;;;;;;4.97;4.00;;;11.20;99.90;;;;;;5112431;27;20413;-35
2022/11/18 10:16:42;;;;;;;10.73;4.63;;;11.20;99.90;;;;;;5088931;28;20523;-36
2022/11/18 10:19:36;;;;;;;5.33;4.50;;;11.30;99.90;;;;;;5112344;28;20460;-36
2022/11/18 10:22:16;;;;;;;5.00;4.50;;;11.20;99.90;;;;;;5110921;28;20827;-36
2022/11/18 10:24:47;;;;;;;5.83;3.87;;;11.20;99.90;;;;;;5111526;28;20962;-35
2022/11/18 10:27:15;;;;;;;5.40;4.60;;;11.20;99.90;;;;;;5112317;28;20425;-35
2022/11/18 10:29:41;;;;;;;6.57;4.20;;;11.20;99.90;;;;;;5112182;28;20939;-35
2022/11/18 10:32:15;;;;;;;4.90;3.67;;;11.10;99.90;;;;;;5112304;28;20414;-36
2022/11/18 10:34:53;;;;;;;6.67;4.30;;;11.10;99.90;;;;;;5111116;28;20571;-35
2022/11/18 10:37:35;;;;;;;5.27;4.00;;;11.20;99.90;;;;;;5112356;28;20436;-36
2022/11/18 10:40:03;;;;;;;7.83;4.37;;;11.20;99.90;;;;;;5111933;28;20447;-35
2022/11/18 10:42:40;;;;;;;5.33;4.37;;;11.30;99.90;;;;;;5111715;28;20413;-36
2022/11/18 10:45:22;;;;;;;4.93;3.90;;;11.30;99.90;;;;;;5112022;28;20405;-35
2022/11/18 10:48:18;;;;;;;5.93;4.30;;;11.40;99.90;;;;;;5112133;28;20414;-36
2022/11/18 10:50:45;;;;;;;5.20;3.60;;;11.50;99.90;;;;;;5106858;28;20437;-36
2022/11/18 10:53:35;;;;;;;5.40;3.13;;;11.60;99.90;;;;;;5111703;28;20923;-35
2022/11/18 10:56:07;;;;;;;5.03;3.60;;;11.60;99.90;;;;;;5112004;28;20881;-35
2022/11/18 10:58:42;;;;;;;5.67;3.90;;;11.60;99.90;;;;;;5111445;28;20792;-36
2022/11/18 11:01:20;;;;;;;4.73;2.93;;;11.80;99.90;;;;;;5110447;28;20898;-35
2022/11/18 11:04:17;;;;;;;6.63;3.67;;;11.80;99.90;;;;;;5111142;28;21022;-36
2022/11/18 11:06:43;;;;;;;3.43;3.13;;;11.80;99.90;;;;;;5111563;28;20433;-36
2022/11/18 11:09:24;;;;;;;6.13;3.67;;;11.70;99.90;;;;;;5111361;28;20462;-35
2022/11/18 11:12:16;;;;;;;4.37;3.30;;;11.80;99.90;;;;;;5111367;28;20180;-36
2022/11/18 11:14:56;;;;;;;7.33;3.80;;;11.80;99.90;;;;;;5111397;28;20432;-36
2022/11/18 11:17:30;;;;;;;5.77;4.63;;;11.90;99.90;;;;;;5111312;28;20489;-35
2022/11/18 11:20:15;;;;;;;5.03;3.70;;;11.80;99.90;;;;;;5111065;28;20409;-35
2022/11/18 11:22:41;;;;;;;7.17;3.80;;;11.80;99.90;;;;;;5110842;28;20644;-36
2022/11/18 11:25:15;;;;;;;5.60;4.30;;;11.80;99.90;;;;;;5111459;28;20771;-35
2022/11/18 11:28:13;;;;;;;6.67;4.00;;;11.80;99.90;;;;;;5110508;27;20474;-36
2022/11/18 11:31:01;;;;;;;6.57;3.70;;;11.90;99.90;;;;;;5108528;28;20424;-36
2022/11/18 11:33:52;;;;;;;5.97;4.60;;;11.80;99.90;;;;;;5108042;28;20471;-36
2022/11/18 11:36:21;;;;;;;5.27;4.17;;;11.90;99.90;;;;;;5110216;28;20401;-36
2022/11/18 11:39:18;;;;;;;7.83;3.80;;;12.00;99.90;;;;;;5110423;28;20406;-35
2022/11/18 11:42:05;;;;;;;7.90;3.70;;;12.00;99.90;;;;;;5109772;28;20421;-36
2022/11/18 11:44:45;;;;;;;6.33;3.40;;;12.10;99.90;;;;;;5110444;28;20460;-35
2022/11/18 11:50:21;;;;;;;3.70;3.40;;;12.10;99.90;;;;;;5110445;28;20493;-35
2022/11/18 11:53:01;;;;;;;10.37;3.53;;;12.30;99.90;;;;;;5110559;28;20424;-36
2022/11/18 11:55:49;;;;;;;6.90;3.70;;;12.60;99.90;;;;;;5110351;28;20462;-36
2022/11/18 11:58:48;;;;;;;9.60;4.33;;;12.80;99.90;;;;;;5110685;28;20414;-36
2022/11/18 12:01:26;;;;;;;5.33;3.43;;;13.00;99.90;;;;;;5110797;28;20414;-36
2022/11/18 12:04:14;;;;;;;5.57;4.03;;;13.10;99.90;;;;;;5110432;28;20514;-35
2022/11/18 12:06:41;;;;;;;6.20;3.70;;;13.10;99.90;;;;;;5110361;28;20433;-36
2022/11/18 12:09:31;;;;;;;4.53;3.40;;;13.00;99.90;;;;;;5110394;28;20740;-36
2022/11/18 12:12:36;;;;;;;4.50;3.40;;;12.90;99.90;;;;;;5110386;28;20418;-36
2022/11/18 12:15:19;;;;;;;4.47;2.77;;;12.70;99.90;;;;;;5110582;28;20462;-36
2022/11/18 12:17:53;;;;;;;4.73;3.27;;;12.60;99.90;;;;;;5110407;28;20470;-36
2022/11/18 12:20:39;;;;;;;9.50;3.10;;;12.50;99.90;;;;;;5110193;28;20488;-35
2022/11/18 12:23:15;;;;;;;6.17;3.30;;;12.50;99.90;;;;;;5109805;28;20468;-35
2022/11/18 12:25:47;;;;;;;3.40;2.60;;;12.50;99.90;;;;;;5110832;28;20500;-36
2022/11/18 12:28:33;;;;;;;5.50;2.80;;;12.50;99.90;;;;;;5110317;28;20942;-36
2022/11/18 12:31:32;;;;;;;4.07;2.20;;;12.40;99.90;;;;;;5110539;28;20410;-35
2022/11/18 12:34:02;;;;;;;6.40;2.20;;;12.40;99.90;;;;;;5096312;28;20425;-36
2022/11/18 12:36:38;;;;;;;4.27;2.50;;;12.40;99.90;;;;;;5109281;28;20795;-35
2022/11/18 12:39:22;;;;;;;6.00;2.17;;;12.40;99.90;;;;;;5109782;28;20416;-35
2022/11/18 12:44:49;;;;;;;4.13;2.30;;;12.30;99.90;;;;;;5108493;28;20472;-35
2022/11/18 12:47:53;;;;;;;5.10;2.70;;;12.30;99.90;;;;;;5111142;28;20420;-35
2022/11/18 12:50:19;;;;;;;4.23;2.20;;;12.30;99.90;;;;;;5086459;28;20433;-36
2022/11/18 12:52:46;;;;;;;3.43;2.23;;;12.40;99.90;;;;;;5109186;28;20421;-35
2022/11/18 12:55:32;;;;;;;3.70;2.20;;;12.40;99.90;;;;;;5114280;28;20458;-36
2022/11/18 12:57:57;;;;;;;4.60;2.47;;;12.40;99.90;;;;;;5114160;28;20772;-36
2022/11/18 13:00:23;;;;;;;3.60;2.17;;;12.40;99.90;;;;;;5113593;28;20428;-35
2022/11/18 13:02:55;;;;;;;5.60;2.37;;;12.40;99.90;;;;;;5113755;28;20176;-35
2022/11/18 13:05:23;;;;;;;5.63;2.30;;;12.40;99.90;;;;;;5114101;28;20199;-36
2022/11/18 13:08:13;;;;;;;2.53;2.23;;;12.40;99.90;;;;;;5113876;28;20892;-36
2022/11/18 13:10:47;;;;;;;5.97;2.67;;;12.40;99.90;;;;;;5113518;28;20436;-36
2022/11/18 13:13:33;;;;;;;3.50;2.10;;;12.40;99.90;;;;;;5113701;28;20424;-35
2022/11/18 13:18:57;;;;;;;5.70;2.83;;;12.40;99.90;;;;;;5113310;28;20421;-35
2022/11/18 13:24:12;;;;;;;3.43;2.13;;;12.30;99.90;;;;;;5113296;28;20215;-36
2022/11/18 13:26:41;;;;;;;4.50;2.10;;;12.40;99.90;;;;;;5113729;28;20417;-35
2022/11/18 13:29:54;;;;;;;3.47;2.60;;;12.40;99.90;;;;;;5111898;28;20412;-35
2022/11/18 13:32:27;;;;;;;4.83;2.63;;;12.40;99.90;;;;;;5108037;28;20470;-35
2022/11/18 13:34:55;;;;;;;4.73;2.90;;;12.30;99.90;;;;;;5112582;28;20425;-35
2022/11/18 13:37:30;;;;;;;4.90;2.00;;;12.30;99.90;;;;;;5113461;27;20432;-36